Time;durP1;ratioP1;P1;durP2;ratioP2;P2;SDS_P1;SDS_P2;PMS_P1;PMS_P2;Temp;Humidity;BMP_temperature;BMP_pressure;BME280_temperature;BME280_humidity;BME280_pressure;Samples;Min_cycle;Max_cycle;Signal;HPM_P1;HPM_P2
2021/05/10 00:00:11;;;;;;;5.70;1.92;;;21.50;79.00;;;;;;5057044;28;20067;-50
2021/05/10 00:02:39;;;;;;;8.90;2.80;;;21.70;78.10;;;;;;5074790;28;20390;-51
2021/05/10 00:05:07;;;;;;;3.13;1.90;;;21.70;77.90;;;;;;5073478;28;20165;-50
2021/05/10 00:07:34;;;;;;;3.05;1.83;;;21.70;79.70;;;;;;5074034;28;20021;-56
2021/05/10 00:10:03;;;;;;;6.68;1.75;;;21.70;79.20;;;;;;5075091;28;20222;-49
2021/05/10 00:12:30;;;;;;;3.88;1.67;;;21.80;78.70;;;;;;5075159;28;20036;-51
2021/05/10 00:14:58;;;;;;;2.22;1.70;;;21.80;79.00;;;;;;5074634;28;20043;-55
2021/05/10 00:17:25;;;;;;;4.05;2.05;;;21.80;78.70;;;;;;5074987;28;20103;-56
2021/05/10 00:19:53;;;;;;;7.32;2.35;;;21.80;78.90;;;;;;5073312;28;20021;-55
2021/05/10 00:22:20;;;;;;;123.90;14.15;;;22.00;78.20;;;;;;5075146;28;20036;-57
2021/05/10 00:24:48;;;;;;;2.78;1.60;;;22.00;78.10;;;;;;5074426;28;20138;-50
2021/05/10 00:27:15;;;;;;;8.10;2.22;;;21.90;78.70;;;;;;5074848;28;20055;-55
2021/05/10 00:29:43;;;;;;;5.05;1.80;;;22.00;78.30;;;;;;5074922;28;20090;-56
2021/05/10 00:32:10;;;;;;;63.38;6.18;;;22.20;76.80;;;;;;5073499;28;20034;-51
2021/05/10 00:34:37;;;;;;;11.80;2.80;;;22.30;76.70;;;;;;5074553;28;20036;-56
2021/05/10 00:37:05;;;;;;;2.80;1.83;;;22.40;76.60;;;;;;5074702;28;20071;-56
2021/05/10 00:39:32;;;;;;;2.65;1.80;;;22.40;76.90;;;;;;5074741;28;20482;-60
2021/05/10 00:42:00;;;;;;;3.08;2.05;;;22.40;76.90;;;;;;5074600;28;20086;-59
2021/05/10 00:44:27;;;;;;;3.20;1.63;;;22.40;76.50;;;;;;5074833;28;20462;-56
2021/05/10 00:46:55;;;;;;;4.40;1.90;;;22.50;76.30;;;;;;5073144;28;20028;-57
2021/05/10 00:49:23;;;;;;;9.68;2.67;;;22.70;75.20;;;;;;5074345;28;20038;-55
2021/05/10 00:51:50;;;;;;;4.43;2.13;;;22.70;74.70;;;;;;5074518;28;20033;-58
2021/05/10 00:54:17;;;;;;;91.45;8.48;;;22.70;75.20;;;;;;5074390;28;20032;-61
2021/05/10 00:56:45;;;;;;;4.65;1.90;;;22.80;73.10;;;;;;5074360;28;20025;-59
2021/05/10 00:59:14;;;;;;;2.65;1.83;;;22.80;75.40;;;;;;5074852;28;20032;-57
2021/05/10 01:01:41;;;;;;;3.95;1.30;;;22.80;73.50;;;;;;5074502;28;20031;-55
2021/05/10 01:04:09;;;;;;;4.88;1.85;;;22.90;74.60;;;;;;5074051;28;20097;-60
2021/05/10 01:06:36;;;;;;;116.43;11.85;;;22.80;75.60;;;;;;5074245;28;20073;-55
2021/05/10 01:09:04;;;;;;;1.95;1.55;;;22.90;72.20;;;;;;5072487;28;20347;-57
2021/05/10 01:11:32;;;;;;;3.20;1.35;;;23.10;74.90;;;;;;5074063;28;20131;-61
2021/05/10 01:13:59;;;;;;;2.30;1.65;;;23.10;74.60;;;;;;5072772;28;20081;-58
2021/05/10 01:16:27;;;;;;;2.70;1.85;;;23.10;73.30;;;;;;5073732;28;20028;-59
2021/05/10 01:18:54;;;;;;;2.22;1.38;;;23.10;74.60;;;;;;5073523;28;20375;-57
2021/05/10 01:21:23;;;;;;;3.13;1.50;;;23.20;74.20;;;;;;5074053;28;20032;-51
2021/05/10 01:23:50;;;;;;;8.45;1.50;;;23.20;72.50;;;;;;5074081;28;20021;-56
2021/05/10 01:26:19;;;;;;;3.10;1.80;;;23.40;72.00;;;;;;5073835;28;20348;-60
2021/05/10 01:28:46;;;;;;;3.00;1.55;;;23.50;72.30;;;;;;5073749;28;20020;-61
2021/05/10 01:31:15;;;;;;;5.88;1.45;;;23.50;72.30;;;;;;5073650;28;20130;-49
2021/05/10 01:33:44;;;;;;;4.82;1.70;;;23.50;71.80;;;;;;5073118;28;20047;-56
2021/05/10 01:36:12;;;;;;;3.20;1.45;;;23.50;73.10;;;;;;5073407;28;20364;-51
2021/05/10 01:38:40;;;;;;;3.58;1.58;;;23.40;71.70;;;;;;5073700;28;20479;-52
2021/05/10 01:41:07;;;;;;;5.97;1.70;;;23.30;73.60;;;;;;5071924;28;20032;-53
2021/05/10 01:43:34;;;;;;;3.10;1.35;;;23.50;72.50;;;;;;5073165;28;20078;-51
2021/05/10 01:46:02;;;;;;;2.60;1.30;;;23.70;67.30;;;;;;5073066;28;20078;-57
2021/05/10 01:48:29;;;;;;;2.40;1.30;;;23.70;71.20;;;;;;5072564;28;20425;-57
2021/05/10 01:50:57;;;;;;;10.98;3.72;;;23.70;68.10;;;;;;5072471;28;20040;-59
2021/05/10 01:53:24;;;;;;;2.75;1.48;;;23.90;70.90;;;;;;5065399;28;20025;-55
2021/05/10 01:55:51;;;;;;;5.97;1.30;;;24.00;69.70;;;;;;5069447;28;20032;-48
2021/05/10 01:58:19;;;;;;;2.58;1.58;;;23.90;69.30;;;;;;5069493;28;20060;-52
2021/05/10 02:00:48;;;;;;;3.72;1.65;;;23.90;70.20;;;;;;5071950;28;20028;-52
2021/05/10 02:03:17;;;;;;;4.40;1.50;;;24.00;67.00;;;;;;5068407;28;20436;-51
2021/05/10 02:05:46;;;;;;;7.68;1.20;;;24.10;68.70;;;;;;5067664;28;20063;-56
2021/05/10 02:08:14;;;;;;;4.03;1.45;;;24.10;70.10;;;;;;5066089;28;20081;-51
2021/05/10 02:10:44;;;;;;;2.15;1.48;;;24.20;68.30;;;;;;5069894;28;20305;-52
2021/05/10 02:13:16;;;;;;;2.78;1.73;;;24.30;68.70;;;;;;5066656;28;20037;-53
2021/05/10 02:16:02;;;;;;;3.40;1.35;;;24.50;67.40;;;;;;5070409;28;20036;-53
2021/05/10 02:18:35;;;;;;;3.08;1.50;;;24.70;68.30;;;;;;5067327;28;20136;-54
2021/05/10 02:21:04;;;;;;;5.05;1.60;;;24.80;63.40;;;;;;5069363;28;20065;-51
2021/05/10 02:23:36;;;;;;;3.28;1.13;;;24.90;65.50;;;;;;5066582;28;20024;-56
2021/05/10 02:26:04;;;;;;;;;;;25.00;66.90;;;;;;5070338;28;20036;-49
2021/05/10 02:28:32;;;;;;;1.73;1.20;;;25.00;62.50;;;;;;5069256;28;19948;-52
2021/05/10 02:31:01;;;;;;;2.63;1.25;;;25.00;67.00;;;;;;5069368;28;20055;-49
2021/05/10 02:33:32;;;;;;;3.08;1.25;;;25.00;66.50;;;;;;5065962;28;20031;-51
2021/05/10 02:36:00;;;;;;;2.80;0.90;;;25.10;63.90;;;;;;5069334;28;20032;-52
2021/05/10 02:38:28;;;;;;;4.30;1.23;;;25.00;67.50;;;;;;5068248;28;20032;-49
2021/05/10 02:40:56;;;;;;;4.90;1.13;;;25.00;64.70;;;;;;5070241;28;20024;-54
2021/05/10 02:43:26;;;;;;;2.67;1.38;;;25.00;62.20;;;;;;5064469;28;20029;-52
2021/05/10 02:45:54;;;;;;;8.02;1.88;;;25.00;66.40;;;;;;5069444;28;20390;-51
2021/05/10 02:48:22;;;;;;;1.75;0.80;;;25.00;61.30;;;;;;5071737;28;20028;-54
2021/05/10 02:50:49;;;;;;;1.60;1.02;;;25.10;66.50;;;;;;5068644;28;20041;-48
2021/05/10 02:53:17;;;;;;;4.70;1.38;;;25.20;66.70;;;;;;5066055;28;20144;-51
2021/05/10 02:55:44;;;;;;;1.85;1.10;;;25.10;63.50;;;;;;5069768;28;20095;-51
2021/05/10 02:58:11;;;;;;;10.18;1.55;;;25.40;65.20;;;;;;5069627;28;20051;-53
2021/05/10 03:00:39;;;;;;;7.15;1.13;;;25.30;65.20;;;;;;5068919;28;20077;-49
2021/05/10 03:03:06;;;;;;;4.18;1.15;;;25.40;63.60;;;;;;5067935;28;20387;-55
2021/05/10 03:05:34;;;;;;;3.17;1.23;;;25.30;64.50;;;;;;5069535;28;20065;-52
2021/05/10 03:08:02;;;;;;;4.93;1.42;;;25.40;63.00;;;;;;5069079;28;20021;-48
2021/05/10 03:10:29;;;;;;;3.22;1.08;;;25.50;61.80;;;;;;5069598;28;20142;-53
2021/05/10 03:12:56;;;;;;;3.50;1.40;;;25.60;64.50;;;;;;5065987;28;20573;-45
2021/05/10 03:15:24;;;;;;;3.22;1.13;;;25.60;65.00;;;;;;5069083;28;20029;-50
2021/05/10 03:17:54;;;;;;;3.60;0.95;;;25.60;63.30;;;;;;5068325;28;20475;-52
2021/05/10 03:20:23;;;;;;;1.77;0.90;;;25.50;59.70;;;;;;5069629;28;20044;-54
2021/05/10 03:22:53;;;;;;;2.45;0.98;;;25.50;64.00;;;;;;5066043;28;20025;-48
2021/05/10 03:25:22;;;;;;;1.80;0.85;;;25.40;65.80;;;;;;5068494;28;20034;-55
2021/05/10 03:27:51;;;;;;;2.75;0.80;;;25.30;63.10;;;;;;5069371;28;20020;-49
2021/05/10 03:30:22;;;;;;;0.75;0.60;;;25.20;65.30;;;;;;5069595;28;20490;-52
2021/05/10 03:32:50;;;;;;;4.78;2.03;;;25.20;65.30;;;;;;5067160;28;20028;-48
2021/05/10 03:35:19;;;;;;;2.90;1.30;;;25.10;64.50;;;;;;5073146;28;20056;-51
2021/05/10 03:37:47;;;;;;;5.53;1.65;;;25.00;66.70;;;;;;5069754;28;20032;-47
2021/05/10 03:40:18;;;;;;;19.45;4.00;;;24.80;65.90;;;;;;5071246;28;20029;-55
2021/05/10 03:42:47;;;;;;;22.98;4.78;;;24.70;66.00;;;;;;5069265;28;20071;-54
2021/05/10 03:45:16;;;;;;;20.52;6.10;;;24.70;67.70;;;;;;5073276;28;20402;-57
2021/05/10 03:47:44;;;;;;;18.25;4.93;;;24.60;66.90;;;;;;5074195;28;20049;-57
2021/05/10 03:50:14;;;;;;;23.20;5.40;;;24.50;67.90;;;;;;5072863;28;20052;-53
2021/05/10 03:52:43;;;;;;;27.48;7.15;;;24.60;66.80;;;;;;5069109;28;20029;-53
2021/05/10 03:55:16;;;;;;;28.52;8.25;;;24.50;67.60;;;;;;5071521;28;20052;-49
2021/05/10 03:57:44;;;;;;;19.15;5.90;;;24.50;69.80;;;;;;5071016;28;20426;-48
2021/05/10 04:00:21;;;;;;;19.98;5.20;;;24.50;66.60;;;;;;5072710;28;20036;-59
2021/05/10 04:02:49;;;;;;;16.27;4.90;;;24.50;68.70;;;;;;5067876;28;20033;-54
2021/05/10 04:07:57;;;;;;;13.00;4.13;;;24.40;70.30;;;;;;5074342;28;20108;-59
2021/05/10 04:15:55;;;;;;;20.20;4.55;;;24.70;68.80;;;;;;5075597;28;20024;-56
2021/05/10 04:18:23;;;;;;;13.02;4.30;;;24.90;68.00;;;;;;5074636;28;20089;-60
2021/05/10 04:20:51;;;;;;;9.10;3.47;;;25.00;65.40;;;;;;5073679;28;20025;-56
2021/05/10 04:23:20;;;;;;;9.50;2.58;;;25.10;66.90;;;;;;5073312;28;20021;-60
2021/05/10 04:25:50;;;;;;;15.13;3.97;;;25.10;64.70;;;;;;5074776;28;20021;-59
2021/05/10 04:28:18;;;;;;;18.02;3.45;;;25.20;63.30;;;;;;5074927;28;20067;-60
2021/05/10 04:30:47;;;;;;;12.25;3.58;;;25.30;62.60;;;;;;5074713;28;20043;-59
2021/05/10 04:33:15;;;;;;;10.48;3.47;;;25.50;63.50;;;;;;5074583;28;20047;-63
2021/05/10 04:35:42;;;;;;;11.38;2.60;;;25.50;64.60;;;;;;5074509;28;20082;-59
2021/05/10 04:38:12;;;;;;;15.48;4.10;;;25.70;62.50;;;;;;5074891;28;20095;-61
2021/05/10 04:40:40;;;;;;;10.25;2.50;;;25.70;61.90;;;;;;5073720;28;20060;-61
2021/05/10 04:43:08;;;;;;;9.77;3.30;;;25.70;62.10;;;;;;5073770;28;20095;-59
2021/05/10 04:45:36;;;;;;;10.57;3.25;;;25.50;62.60;;;;;;5073372;28;20040;-57
2021/05/10 04:48:05;;;;;;;14.38;3.80;;;25.50;63.60;;;;;;5074473;28;20024;-56
2021/05/10 04:50:33;;;;;;;9.98;2.88;;;25.50;62.10;;;;;;5073314;28;20039;-59
2021/05/10 04:53:00;;;;;;;9.40;2.50;;;25.60;61.20;;;;;;5074198;28;20028;-58
2021/05/10 04:55:27;;;;;;;10.43;3.35;;;25.70;62.50;;;;;;5074434;28;20056;-59
2021/05/10 04:57:55;;;;;;;8.13;2.47;;;25.70;61.40;;;;;;5073242;28;20036;-60
2021/05/10 05:00:22;;;;;;;9.20;2.55;;;25.80;59.80;;;;;;5074347;28;20360;-57
2021/05/10 05:02:50;;;;;;;7.57;2.35;;;25.80;62.20;;;;;;5074302;28;20039;-50
2021/05/10 05:05:17;;;;;;;9.40;2.28;;;26.00;61.70;;;;;;5074126;28;20155;-50
2021/05/10 05:07:44;;;;;;;10.95;2.78;;;26.00;62.00;;;;;;5074318;28;20025;-58
2021/05/10 05:10:12;;;;;;;9.68;2.78;;;26.00;62.00;;;;;;5073880;28;20121;-57
2021/05/10 05:12:39;;;;;;;15.73;3.53;;;26.00;63.50;;;;;;5073991;28;20071;-49
2021/05/10 05:15:11;;;;;;;12.13;3.03;;;26.10;63.50;;;;;;5072300;28;20453;-57
2021/05/10 05:17:39;;;;;;;8.73;2.78;;;26.10;62.40;;;;;;5073928;28;20103;-57
2021/05/10 05:20:07;;;;;;;8.65;2.88;;;26.10;57.20;;;;;;5073763;28;20032;-57
2021/05/10 05:22:36;;;;;;;8.00;2.42;;;26.20;62.70;;;;;;5072374;28;20020;-59
2021/05/10 05:25:08;;;;;;;8.70;1.95;;;26.20;63.10;;;;;;5073839;28;20035;-55
2021/05/10 05:27:36;;;;;;;5.47;1.60;;;26.30;58.10;;;;;;5073986;28;20028;-60
2021/05/10 05:30:05;;;;;;;6.82;2.05;;;26.20;60.80;;;;;;5073736;28;20418;-58
2021/05/10 05:32:33;;;;;;;8.73;2.13;;;26.20;62.80;;;;;;5073508;28;20032;-52
2021/05/10 05:35:00;;;;;;;11.02;2.55;;;26.20;57.90;;;;;;5073172;28;20032;-56
2021/05/10 05:37:28;;;;;;;5.95;1.88;;;26.00;61.30;;;;;;5072924;28;20501;-56
2021/05/10 05:39:55;;;;;;;7.80;1.80;;;25.90;58.90;;;;;;5073517;28;20066;-56
2021/05/10 05:42:23;;;;;;;5.47;2.38;;;25.80;58.60;;;;;;5073387;28;20080;-53
2021/05/10 05:44:53;;;;;;;5.95;1.58;;;25.80;64.20;;;;;;5073291;28;20024;-52
2021/05/10 05:47:28;;;;;;;5.15;1.80;;;25.70;62.20;;;;;;5073321;28;20020;-57
2021/05/10 05:49:56;;;;;;;7.45;2.08;;;25.60;62.90;;;;;;5072819;28;20037;-58
2021/05/10 05:52:23;;;;;;;9.93;1.98;;;25.60;60.20;;;;;;5064400;28;20085;-56
2021/05/10 05:54:52;;;;;;;7.43;1.83;;;25.60;62.20;;;;;;5067341;28;20029;-56
2021/05/10 05:57:22;;;;;;;7.82;1.75;;;25.60;59.70;;;;;;5067446;28;20032;-59
2021/05/10 05:59:50;;;;;;;6.57;2.10;;;25.60;61.10;;;;;;5070592;28;20109;-58
2021/05/10 06:02:17;;;;;;;16.30;2.80;;;25.50;63.60;;;;;;5069447;28;20021;-52
2021/05/10 06:04:44;;;;;;;5.85;2.15;;;25.50;57.20;;;;;;5069737;28;20104;-47
2021/05/10 06:07:12;;;;;;;7.13;2.20;;;25.50;58.30;;;;;;5066720;28;20107;-59
2021/05/10 06:09:39;;;;;;;6.15;1.85;;;25.40;61.80;;;;;;5068963;28;20398;-59
2021/05/10 06:12:10;;;;;;;10.40;1.83;;;25.40;62.60;;;;;;5070333;28;20051;-58
2021/05/10 06:14:37;;;;;;;5.43;1.92;;;25.10;59.90;;;;;;5069397;28;20127;-52
2021/05/10 06:17:05;;;;;;;3.83;1.70;;;24.90;64.60;;;;;;5066207;28;20024;-54
2021/05/10 06:19:34;;;;;;;6.78;2.08;;;24.70;64.70;;;;;;5068301;28;20021;-47
2021/05/10 06:22:02;;;;;;;5.78;2.03;;;24.70;65.30;;;;;;5069893;28;20029;-51
2021/05/10 06:24:30;;;;;;;4.32;1.80;;;24.60;64.50;;;;;;5068663;28;20067;-55
2021/05/10 06:26:57;;;;;;;4.25;1.98;;;24.50;67.40;;;;;;5065955;28;20021;-55
2021/05/10 06:29:25;;;;;;;3.55;1.38;;;24.30;65.20;;;;;;5068344;28;20032;-51
2021/05/10 06:31:52;;;;;;;7.20;1.98;;;24.20;66.20;;;;;;5069170;28;20418;-54
2021/05/10 06:34:19;;;;;;;7.43;2.13;;;24.10;65.20;;;;;;5069603;28;20025;-53
2021/05/10 06:36:47;;;;;;;4.40;1.75;;;23.90;66.40;;;;;;5062303;28;20051;-54
2021/05/10 06:39:14;;;;;;;6.50;1.77;;;23.90;65.80;;;;;;5065654;28;20024;-52
2021/05/10 06:41:42;;;;;;;4.72;1.85;;;23.80;65.70;;;;;;5067786;28;20571;-49
2021/05/10 06:44:10;;;;;;;4.63;1.65;;;23.70;70.80;;;;;;5067002;28;20372;-53
2021/05/10 06:46:37;;;;;;;6.57;1.77;;;23.60;71.90;;;;;;5066931;28;20387;-53
2021/05/10 06:49:05;;;;;;;3.05;1.40;;;23.50;70.70;;;;;;5069572;28;20074;-48
2021/05/10 06:51:33;;;;;;;6.75;1.70;;;23.50;71.50;;;;;;5069046;28;20040;-51
2021/05/10 06:54:00;;;;;;;6.25;1.67;;;23.40;72.60;;;;;;5070114;28;20033;-54
2021/05/10 06:56:28;;;;;;;4.80;2.10;;;23.40;72.40;;;;;;5067629;28;20028;-57
2021/05/10 06:58:55;;;;;;;4.00;1.77;;;23.20;70.70;;;;;;5070871;28;20039;-60
2021/05/10 07:01:22;;;;;;;5.50;1.48;;;23.20;72.30;;;;;;5071838;28;20521;-53
2021/05/10 07:03:50;;;;;;;5.22;2.45;;;23.10;74.10;;;;;;5071515;28;20104;-56
2021/05/10 07:06:18;;;;;;;7.85;3.45;;;23.10;73.00;;;;;;5071099;28;20079;-62
2021/05/10 07:08:48;;;;;;;6.68;2.83;;;23.00;69.40;;;;;;5070916;28;20021;-55
2021/05/10 07:11:15;;;;;;;7.50;2.88;;;22.80;67.10;;;;;;5070568;28;20132;-60
2021/05/10 07:13:43;;;;;;;7.28;3.78;;;22.70;73.60;;;;;;5071580;28;20055;-53
2021/05/10 07:16:10;;;;;;;8.93;4.25;;;22.60;74.50;;;;;;5071995;28;20094;-59
2021/05/10 07:18:38;;;;;;;9.43;6.28;;;22.50;74.70;;;;;;5071645;28;20024;-56
2021/05/10 07:21:05;;;;;;;10.07;7.13;;;22.50;77.40;;;;;;5071921;28;20024;-53
2021/05/10 07:23:35;;;;;;;10.27;7.60;;;22.40;77.10;;;;;;5070358;28;20383;-54
2021/05/10 07:26:02;;;;;;;21.13;6.45;;;22.40;76.10;;;;;;5071402;28;20342;-52
2021/05/10 07:28:29;;;;;;;15.25;9.43;;;22.50;62.10;;;;;;5071336;28;20078;-50
2021/05/10 07:30:57;;;;;;;14.95;11.18;;;22.50;72.70;;;;;;5070025;28;20152;-51
2021/05/10 07:33:24;;;;;;;13.25;10.20;;;22.60;72.40;;;;;;5071706;28;20085;-50
2021/05/10 07:35:51;;;;;;;14.02;8.60;;;22.70;74.50;;;;;;5070996;28;20336;-44
2021/05/10 07:38:19;;;;;;;37.42;12.23;;;22.70;73.30;;;;;;5069826;28;20036;-54
2021/05/10 07:40:48;;;;;;;19.85;6.72;;;22.80;64.90;;;;;;5070455;28;20021;-43
2021/05/10 07:43:16;;;;;;;21.60;19.45;;;22.80;66.60;;;;;;5070991;28;20036;-51
2021/05/10 07:45:44;;;;;;;14.82;13.45;;;22.80;69.90;;;;;;5069758;28;20067;-49
2021/05/10 07:48:11;;;;;;;15.00;11.25;;;22.80;72.50;;;;;;5069037;28;20034;-42
2021/05/10 07:50:38;;;;;;;8.77;7.40;;;22.70;72.40;;;;;;5069727;28;20040;-53
2021/05/10 07:53:06;;;;;;;10.50;8.73;;;22.70;73.50;;;;;;5069968;28;20029;-55
2021/05/10 07:55:34;;;;;;;12.90;7.93;;;22.60;73.60;;;;;;5070398;28;20024;-51
2021/05/10 07:58:01;;;;;;;11.65;6.63;;;22.60;74.00;;;;;;5070583;28;20108;-50
2021/05/10 08:00:34;;;;;;;9.55;4.57;;;22.50;74.20;;;;;;5070586;28;20111;-52
2021/05/10 08:03:16;;;;;;;8.00;4.50;;;22.50;74.00;;;;;;5071334;28;20033;-45
2021/05/10 08:05:43;;;;;;;10.95;5.80;;;22.40;73.60;;;;;;5071514;28;20035;-53
2021/05/10 08:08:13;;;;;;;5.53;4.25;;;22.40;73.30;;;;;;5071314;28;20143;-45
2021/05/10 08:10:44;;;;;;;6.70;3.20;;;22.30;74.00;;;;;;5071181;28;20076;-62
2021/05/10 08:13:20;;;;;;;7.30;3.60;;;22.30;73.70;;;;;;5071934;28;20033;-58
2021/05/10 08:15:51;;;;;;;5.05;2.97;;;22.20;74.20;;;;;;5071960;28;20029;-62
2021/05/10 08:18:22;;;;;;;11.90;3.67;;;22.20;73.90;;;;;;5073204;28;20155;-59
2021/05/10 08:20:50;;;;;;;5.50;2.65;;;22.20;74.10;;;;;;5075671;28;20382;-56
2021/05/10 08:23:26;;;;;;;9.23;2.83;;;22.20;72.60;;;;;;5075189;28;20368;-51
2021/05/10 08:25:54;;;;;;;10.27;2.45;;;22.10;74.50;;;;;;5075840;28;20102;-53
2021/05/10 08:28:25;;;;;;;11.27;2.80;;;22.10;74.60;;;;;;5074798;28;20076;-51
2021/05/10 08:31:11;;;;;;;15.07;2.97;;;22.00;74.10;;;;;;5075302;28;20390;-63
2021/05/10 08:33:48;;;;;;;9.95;3.45;;;22.00;69.90;;;;;;5095782;28;20049;-66
2021/05/10 08:36:30;;;;;;;14.27;3.70;;;22.00;69.50;;;;;;5095628;28;20049;-61
2021/05/10 08:39:05;;;;;;;14.73;3.70;;;22.00;71.50;;;;;;5095516;28;20620;-58
2021/05/10 08:41:32;;;;;;;12.27;3.15;;;21.90;70.00;;;;;;5094359;28;20493;-56
2021/05/10 08:44:02;;;;;;;9.45;2.78;;;21.90;72.00;;;;;;5095031;28;20039;-58
2021/05/10 08:46:30;;;;;;;27.50;3.42;;;21.90;69.50;;;;;;5094410;28;20131;-57
2021/05/10 08:49:01;;;;;;;12.90;3.05;;;21.90;71.10;;;;;;5094687;28;20043;-58
2021/05/10 08:51:32;;;;;;;14.73;3.50;;;21.80;73.20;;;;;;5094731;28;20036;-59
2021/05/10 08:53:59;;;;;;;17.38;4.40;;;21.80;74.70;;;;;;5094881;28;20044;-61
2021/05/10 08:56:27;;;;;;;15.10;3.30;;;21.80;75.60;;;;;;5083966;28;20024;-53
2021/05/10 08:58:54;;;;;;;11.27;3.70;;;21.80;77.10;;;;;;5094065;28;20132;-60
2021/05/10 09:01:41;;;;;;;14.02;3.50;;;21.80;77.70;;;;;;5093987;28;20038;-61
2021/05/10 09:04:09;;;;;;;12.02;4.57;;;21.70;78.40;;;;;;5086221;28;20024;-55
2021/05/10 09:06:36;;;;;;;15.07;4.50;;;21.70;77.50;;;;;;5073380;28;20079;-54
2021/05/10 09:09:08;;;;;;;10.55;4.03;;;21.70;78.70;;;;;;5067047;28;20063;-61
2021/05/10 09:11:55;;;;;;;12.63;4.43;;;21.80;79.30;;;;;;5071928;28;20080;-56
2021/05/10 09:14:34;;;;;;;13.75;3.88;;;21.70;78.40;;;;;;5064571;28;20037;-63
2021/05/10 09:17:02;;;;;;;9.55;4.10;;;21.80;76.20;;;;;;5069078;28;20111;-55
2021/05/10 09:19:48;;;;;;;18.27;4.22;;;21.80;80.40;;;;;;5065352;28;20104;-60
2021/05/10 09:22:17;;;;;;;20.58;5.90;;;21.80;80.40;;;;;;5068857;28;20136;-60
2021/05/10 09:24:50;;;;;;;28.10;5.35;;;21.80;79.90;;;;;;5069267;28;20024;-57
2021/05/10 09:27:23;;;;;;;23.17;5.30;;;21.80;78.10;;;;;;5070069;28;20037;-57
2021/05/10 09:30:37;;;;;;;19.77;5.90;;;21.80;80.60;;;;;;5065296;28;20025;-61
2021/05/10 09:33:24;;;;;;;14.25;6.70;;;21.80;82.40;;;;;;5058684;28;20041;-63
2021/05/10 09:36:07;;;;;;;24.83;8.77;;;21.80;82.90;;;;;;5068015;28;20044;-60
2021/05/10 09:38:41;;;;;;;23.90;6.57;;;21.80;82.20;;;;;;5067948;28;20432;-56
2021/05/10 09:41:18;;;;;;;15.00;6.68;;;21.80;81.80;;;;;;5069722;28;20033;-59
2021/05/10 09:43:46;;;;;;;15.45;8.90;;;21.80;80.80;;;;;;5071408;28;20105;-60
2021/05/10 09:46:14;;;;;;;21.42;9.82;;;21.80;79.10;;;;;;5070015;28;20052;-60
2021/05/10 09:48:45;;;;;;;27.75;8.15;;;21.70;76.00;;;;;;5069281;28;20403;-60
2021/05/10 09:51:17;;;;;;;29.23;12.70;;;21.60;78.00;;;;;;5070641;28;20055;-56
2021/05/10 09:53:56;;;;;;;22.42;7.90;;;21.60;76.50;;;;;;5070662;28;20111;-57
2021/05/10 09:56:33;;;;;;;23.48;8.90;;;21.60;79.80;;;;;;5071041;28;21211;-59
2021/05/10 09:59:12;;;;;;;22.15;9.23;;;21.60;78.50;;;;;;5065313;28;20037;-58
2021/05/10 10:01:45;;;;;;;24.10;12.38;;;21.60;79.40;;;;;;5068314;28;20017;-55
2021/05/10 10:04:18;;;;;;;25.75;18.63;;;21.50;80.10;;;;;;5070544;28;20458;-57
2021/05/10 10:06:46;;;;;;;27.77;11.65;;;21.50;77.60;;;;;;5066509;28;20123;-56
2021/05/10 10:09:14;;;;;;;29.98;11.38;;;21.50;80.80;;;;;;5066608;28;20031;-57
2021/05/10 10:11:42;;;;;;;24.30;10.35;;;21.50;80.60;;;;;;5070184;28;20541;-53
2021/05/10 10:14:10;;;;;;;33.83;16.73;;;21.50;79.10;;;;;;5069189;28;20386;-51
2021/05/10 10:16:38;;;;;;;23.27;16.23;;;21.50;79.20;;;;;;5070129;28;20070;-61
2021/05/10 10:19:09;;;;;;;24.00;15.25;;;21.50;78.40;;;;;;5067090;28;20055;-62
2021/05/10 10:21:38;;;;;;;23.37;12.07;;;21.50;78.10;;;;;;5069289;28;20028;-61
2021/05/10 10:24:08;;;;;;;38.33;26.08;;;21.50;79.00;;;;;;5070087;28;20082;-63
2021/05/10 10:26:38;;;;;;;19.80;11.00;;;21.50;80.90;;;;;;5069666;28;20027;-57
2021/05/10 10:29:10;;;;;;;25.35;9.30;;;21.40;79.30;;;;;;5064041;28;20037;-55
2021/05/10 10:31:48;;;;;;;24.00;8.25;;;21.40;80.90;;;;;;5070142;28;20382;-57
2021/05/10 10:34:40;;;;;;;20.73;6.85;;;21.40;81.90;;;;;;5067107;28;20367;-62
2021/05/10 10:37:11;;;;;;;25.60;8.48;;;21.30;79.60;;;;;;5069540;28;20028;-59
2021/05/10 10:39:50;;;;;;;22.75;6.88;;;21.40;79.70;;;;;;5066376;28;20027;-56
2021/05/10 10:42:50;;;;;;;17.20;6.72;;;21.30;77.10;;;;;;5066850;28;20398;-63
2021/05/10 10:45:35;;;;;;;23.52;6.53;;;21.20;76.50;;;;;;5053714;28;20032;-60
2021/05/10 10:48:31;;;;;;;19.77;6.28;;;21.30;75.20;;;;;;5068539;28;20453;-58
2021/05/10 10:51:02;;;;;;;21.92;6.43;;;21.20;75.50;;;;;;5066155;28;20036;-60
2021/05/10 10:53:50;;;;;;;15.57;6.03;;;21.20;76.80;;;;;;5051710;28;20025;-52
2021/05/10 10:56:38;;;;;;;16.98;5.80;;;21.10;76.10;;;;;;5047564;28;20283;-53
2021/05/10 10:59:38;;;;;;;16.25;6.25;;;21.00;78.30;;;;;;5062394;28;20549;-55
2021/05/10 11:02:31;;;;;;;22.00;5.70;;;21.10;78.80;;;;;;5055235;28;20498;-58
2021/05/10 11:05:28;;;;;;;15.00;6.15;;;21.10;78.40;;;;;;5065139;28;20029;-55
2021/05/10 11:08:09;;;;;;;12.93;5.53;;;21.10;78.60;;;;;;5034806;28;20487;-51
2021/05/10 11:10:59;;;;;;;15.82;5.63;;;21.00;78.40;;;;;;5063749;28;20036;-57
2021/05/10 11:13:43;;;;;;;14.55;5.20;;;21.00;78.30;;;;;;5066151;28;20114;-56
2021/05/10 11:16:20;;;;;;;14.10;5.65;;;21.00;78.80;;;;;;5067860;28;20066;-50
2021/05/10 11:18:52;;;;;;;12.52;5.45;;;21.10;79.10;;;;;;5066727;28;20029;-54
2021/05/10 11:21:22;;;;;;;;;;;21.00;79.20;;;;;;5069629;28;20062;-52
2021/05/10 11:23:55;;;;;;;9.90;5.60;;;21.00;78.90;;;;;;5069149;28;20386;-51
2021/05/10 11:26:43;;;;;;;13.00;5.22;;;21.00;79.60;;;;;;5069475;28;20043;-57
2021/05/10 11:29:33;;;;;;;13.68;6.45;;;21.00;79.60;;;;;;5065243;28;20044;-53
2021/05/10 11:32:21;;;;;;;9.52;5.22;;;20.90;79.30;;;;;;5056746;28;20048;-53
2021/05/10 11:34:50;;;;;;;13.25;5.30;;;20.90;79.20;;;;;;5068178;28;20020;-55
2021/05/10 11:37:28;;;;;;;12.65;5.15;;;20.90;79.60;;;;;;5069899;28;20040;-52
2021/05/10 11:39:57;;;;;;;11.68;4.70;;;20.90;79.40;;;;;;5065267;28;20016;-51
2021/05/10 11:42:29;;;;;;;9.52;5.00;;;20.90;79.60;;;;;;5069241;28;20039;-49
2021/05/10 11:45:00;;;;;;;16.03;5.53;;;20.80;79.90;;;;;;5068895;28;20471;-56
2021/05/10 11:47:28;;;;;;;14.40;5.97;;;20.70;80.00;;;;;;5068814;28;20276;-54
2021/05/10 11:49:57;;;;;;;13.55;5.15;;;20.80;80.80;;;;;;5064333;28;20104;-53
2021/05/10 11:52:29;;;;;;;11.25;5.03;;;20.80;79.50;;;;;;5069014;28;20166;-50
2021/05/10 11:55:03;;;;;;;8.98;4.90;;;20.80;79.30;;;;;;5072335;28;20103;-53
2021/05/10 11:57:34;;;;;;;10.48;5.00;;;20.70;79.10;;;;;;5072863;28;20083;-47
2021/05/10 12:00:13;;;;;;;8.85;4.32;;;20.70;80.10;;;;;;5069851;28;20051;-48
2021/05/10 12:02:42;;;;;;;9.98;5.20;;;20.70;80.00;;;;;;5072289;28;20020;-52
2021/05/10 12:05:12;;;;;;;15.45;5.25;;;20.70;80.30;;;;;;5072019;28;20475;-54
2021/05/10 12:07:40;;;;;;;12.52;5.32;;;20.70;80.30;;;;;;5073091;28;20081;-49
2021/05/10 12:10:12;;;;;;;11.95;4.30;;;20.70;80.10;;;;;;5067952;28;20052;-56
2021/05/10 12:12:48;;;;;;;10.55;4.78;;;20.70;79.70;;;;;;5068029;28;20037;-55
2021/05/10 12:15:23;;;;;;;9.07;4.30;;;20.70;80.00;;;;;;5069422;28;20032;-58
2021/05/10 12:17:53;;;;;;;7.93;4.18;;;20.70;80.20;;;;;;5070563;28;20036;-50
2021/05/10 12:20:23;;;;;;;9.50;4.70;;;20.60;80.30;;;;;;5069153;28;20028;-45
2021/05/10 12:22:51;;;;;;;8.98;4.63;;;20.60;79.70;;;;;;5071184;28;20040;-53
2021/05/10 12:25:32;;;;;;;20.30;4.78;;;20.60;80.60;;;;;;5071481;28;20024;-52
2021/05/10 12:28:11;;;;;;;8.35;4.65;;;20.60;80.20;;;;;;5072319;28;20109;-56
2021/05/10 12:30:45;;;;;;;11.80;5.07;;;20.60;80.20;;;;;;5068627;28;20032;-52
2021/05/10 12:33:22;;;;;;;10.77;4.43;;;20.60;79.80;;;;;;5069142;28;20119;-53
2021/05/10 12:35:55;;;;;;;6.28;4.10;;;20.60;79.80;;;;;;5071631;28;20421;-57
2021/05/10 12:38:33;;;;;;;7.03;4.22;;;20.60;80.10;;;;;;5072332;28;20056;-57
2021/05/10 12:41:03;;;;;;;11.23;4.68;;;20.50;80.60;;;;;;5069670;28;20429;-57
2021/05/10 12:43:32;;;;;;;9.05;4.47;;;20.60;80.20;;;;;;5071788;28;20058;-53
2021/05/10 12:46:03;;;;;;;7.72;4.38;;;20.50;80.40;;;;;;5071995;28;20060;-44
2021/05/10 12:48:36;;;;;;;10.38;3.90;;;20.50;80.30;;;;;;5072660;28;20024;-52
2021/05/10 12:51:15;;;;;;;9.18;4.03;;;20.50;80.50;;;;;;5069706;28;20044;-50
2021/05/10 12:54:04;;;;;;;8.13;4.30;;;20.50;80.60;;;;;;5072277;28;20020;-52
2021/05/10 12:56:42;;;;;;;8.02;4.50;;;20.50;80.70;;;;;;5070560;28;20040;-53
2021/05/10 12:59:09;;;;;;;5.43;4.05;;;20.50;80.70;;;;;;5068718;28;20020;-52
2021/05/10 13:01:37;;;;;;;7.35;4.10;;;20.50;81.10;;;;;;5070029;28;20024;-53
2021/05/10 13:04:10;;;;;;;6.57;3.60;;;20.40;80.50;;;;;;5071727;28;20498;-50
2021/05/10 13:06:40;;;;;;;12.77;4.25;;;20.40;80.90;;;;;;5072237;28;20074;-53
2021/05/10 13:09:31;;;;;;;7.55;3.97;;;20.40;80.50;;;;;;5068134;28;20051;-47